createdAt,value
2022-08-24T00:01:56.147Z,1.25
2022-08-24T00:04:24.531Z,1.58
2022-08-24T00:06:52.547Z,4.05
2022-08-24T00:09:20.635Z,1.27
2022-08-24T00:11:48.770Z,1.20
2022-08-24T00:14:18.165Z,0.98
2022-08-24T00:16:46.662Z,1.13
2022-08-24T00:19:15.250Z,0.98
2022-08-24T00:21:43.247Z,1.73
2022-08-24T00:24:11.539Z,4.00
2022-08-24T00:26:39.797Z,1.38
2022-08-24T00:29:08.328Z,0.98
2022-08-24T00:31:37.684Z,1.08
2022-08-24T00:34:05.861Z,4.35
2022-08-24T00:36:34.018Z,2.80
2022-08-24T00:39:02.056Z,0.80
2022-08-24T00:41:30.553Z,1.77
2022-08-24T00:44:02.099Z,1.85
2022-08-24T00:46:43.577Z,1.17
2022-08-24T00:49:22.830Z,1.20
2022-08-24T00:51:56.364Z,1.38
2022-08-24T00:54:27.642Z,1.30
2022-08-24T00:56:59.879Z,1.67
2022-08-24T00:59:32.561Z,3.17
2022-08-24T01:02:15.309Z,3.13
2022-08-24T01:04:50.550Z,2.17
2022-08-24T01:09:46.367Z,2.35
2022-08-24T01:12:14.515Z,1.75
2022-08-24T01:14:42.575Z,1.20
2022-08-24T01:17:27.982Z,1.60
2022-08-24T01:19:59.489Z,1.55
2022-08-24T01:22:42.151Z,1.13
2022-08-24T01:25:12.032Z,4.20
2022-08-24T01:27:43.451Z,0.80
2022-08-24T01:30:14.958Z,1.38
2022-08-24T01:32:53.086Z,2.00
2022-08-24T01:35:21.129Z,1.77
2022-08-24T01:37:49.871Z,1.70
2022-08-24T01:40:20.820Z,1.42
2022-08-24T01:42:49.967Z,2.67
2022-08-24T01:45:19.493Z,0.95
2022-08-24T01:47:47.687Z,1.02
2022-08-24T01:50:16.203Z,2.63
2022-08-24T01:53:04.460Z,1.20
2022-08-24T01:55:36.269Z,1.00
2022-08-24T01:58:06.030Z,1.02
2022-08-24T02:00:34.989Z,0.98
2022-08-24T02:03:03.905Z,1.27
2022-08-24T02:05:33.238Z,2.05
2022-08-24T02:08:01.393Z,1.70
2022-08-24T02:10:30.241Z,2.58
2022-08-24T02:13:00.367Z,2.70
2022-08-24T02:15:31.535Z,1.63
2022-08-24T02:18:00.204Z,1.58
2022-08-24T02:20:29.303Z,1.13
2022-08-24T02:22:58.616Z,2.05
2022-08-24T02:25:30.127Z,1.10
2022-08-24T02:27:59.864Z,2.47
2022-08-24T02:30:28.971Z,1.25
2022-08-24T02:32:57.249Z,2.00
2022-08-24T02:35:25.550Z,1.20
2022-08-24T02:37:53.959Z,1.08
2022-08-24T02:40:22.214Z,2.33
2022-08-24T02:42:50.269Z,0.70
2022-08-24T02:45:19.825Z,0.95
2022-08-24T02:47:47.919Z,2.03
2022-08-24T02:50:18.746Z,1.50
2022-08-24T02:52:47.283Z,2.05
2022-08-24T02:55:19.971Z,1.70
2022-08-24T02:57:48.927Z,0.95
2022-08-24T03:00:21.332Z,2.45
2022-08-24T03:02:49.433Z,1.10
2022-08-24T03:05:17.443Z,1.20
2022-08-24T03:07:45.512Z,1.33
2022-08-24T03:10:13.702Z,1.20
2022-08-24T03:12:42.285Z,1.02
2022-08-24T03:15:12.727Z,1.35
2022-08-24T03:17:43.138Z,1.30
2022-08-24T03:20:14.914Z,1.88
2022-08-24T03:22:43.300Z,1.80
2022-08-24T03:25:12.271Z,2.67
2022-08-24T03:27:40.537Z,1.23
2022-08-24T03:30:12.831Z,1.90
2022-08-24T03:32:43.162Z,2.75
2022-08-24T03:35:12.862Z,1.83
2022-08-24T03:37:40.972Z,1.65
2022-08-24T03:40:22.218Z,1.58
2022-08-24T03:42:52.011Z,1.17
2022-08-24T03:45:20.689Z,1.23
2022-08-24T03:47:50.161Z,1.20
2022-08-24T03:50:19.131Z,1.10
2022-08-24T03:52:47.201Z,1.70
2022-08-24T03:55:15.286Z,1.17
2022-08-24T03:57:43.242Z,1.63
2022-08-24T04:00:13.642Z,2.03
2022-08-24T04:02:41.665Z,1.23
2022-08-24T04:05:13.005Z,1.40
2022-08-24T04:07:41.046Z,1.95
2022-08-24T04:10:11.332Z,2.67
2022-08-24T04:12:39.305Z,1.70
2022-08-24T04:15:08.262Z,1.48
2022-08-24T04:17:36.283Z,4.35
2022-08-24T04:20:06.776Z,1.85
2022-08-24T04:22:36.775Z,1.08
2022-08-24T04:25:08.889Z,1.30
2022-08-24T04:27:38.223Z,1.58
2022-08-24T04:30:07.069Z,1.00
2022-08-24T04:32:35.270Z,2.03
2022-08-24T04:35:03.496Z,2.42
2022-08-24T04:37:32.280Z,1.17
2022-08-24T04:40:01.662Z,2.90
2022-08-24T04:42:31.594Z,2.47
2022-08-24T04:45:01.668Z,3.25
2022-08-24T04:47:29.686Z,1.00
2022-08-24T04:49:57.656Z,1.60
2022-08-24T04:52:25.694Z,2.90
2022-08-24T04:54:53.762Z,2.90
2022-08-24T04:57:23.083Z,1.38
2022-08-24T04:59:51.137Z,1.42
2022-08-24T05:02:20.899Z,2.22
2022-08-24T05:04:49.388Z,1.48
2022-08-24T05:07:18.304Z,2.85
2022-08-24T05:09:47.243Z,1.50
2022-08-24T05:12:15.282Z,3.20
2022-08-24T05:14:44.654Z,1.95
2022-08-24T05:17:12.646Z,2.08
2022-08-24T05:19:40.668Z,2.08
2022-08-24T05:22:08.920Z,1.30
2022-08-24T05:24:36.863Z,1.70
2022-08-24T05:27:05.118Z,1.67
2022-08-24T05:29:34.747Z,1.85
2022-08-24T05:32:05.283Z,3.80
2022-08-24T05:34:33.340Z,2.20
2022-08-24T05:37:01.347Z,2.47
2022-08-24T05:39:31.055Z,1.60
2022-08-24T05:41:59.809Z,2.15
2022-08-24T05:44:31.052Z,2.35
2022-08-24T05:47:01.114Z,4.15
2022-08-24T05:49:31.033Z,2.38
2022-08-24T05:51:59.048Z,2.47
2022-08-24T05:54:27.351Z,2.75
2022-08-24T05:56:57.297Z,5.45
2022-08-24T05:59:25.305Z,1.50
2022-08-24T06:01:53.506Z,1.30
2022-08-24T06:04:21.779Z,1.73
2022-08-24T06:06:51.150Z,2.42
2022-08-24T06:09:19.282Z,3.63
2022-08-24T06:11:48.517Z,1.70
2022-08-24T06:14:18.659Z,1.70
2022-08-24T06:16:48.603Z,1.98
2022-08-24T06:19:18.994Z,2.20
2022-08-24T06:21:49.905Z,3.90
2022-08-24T06:24:41.363Z,1.75
2022-08-24T06:27:23.776Z,2.38
2022-08-24T06:29:53.113Z,1.70
2022-08-24T06:32:21.607Z,2.60
2022-08-24T06:34:49.801Z,3.83
2022-08-24T06:37:19.105Z,4.03
2022-08-24T06:39:49.579Z,2.55
2022-08-24T06:42:25.466Z,1.90
2022-08-24T06:44:53.605Z,2.47
2022-08-24T06:47:22.106Z,2.78
2022-08-24T06:49:50.286Z,3.15
2022-08-24T06:52:18.243Z,1.77
2022-08-24T06:54:46.273Z,2.72
2022-08-24T06:57:15.603Z,2.28
2022-08-24T06:59:44.775Z,2.78
2022-08-24T07:02:15.813Z,2.10
2022-08-24T07:04:43.780Z,5.75
2022-08-24T07:07:13.846Z,7.13
2022-08-24T07:09:44.576Z,8.00
2022-08-24T07:12:14.003Z,7.65
2022-08-24T07:14:43.352Z,9.63
2022-08-24T07:17:11.428Z,15.93
2022-08-24T07:19:39.457Z,9.25
2022-08-24T07:22:08.723Z,10.32
2022-08-24T07:24:37.686Z,9.13
2022-08-24T07:27:06.415Z,9.43
2022-08-24T07:29:48.830Z,9.75
2022-08-24T07:32:22.510Z,13.65
2022-08-24T07:34:50.587Z,9.85
2022-08-24T07:37:18.753Z,8.70
2022-08-24T07:39:49.500Z,13.63
2022-08-24T07:42:25.580Z,7.40
2022-08-24T07:44:57.651Z,9.85
2022-08-24T07:47:38.518Z,8.95
2022-08-24T07:50:08.614Z,9.20
2022-08-24T07:52:36.589Z,8.63
2022-08-24T07:55:05.597Z,9.57
2022-08-24T07:57:33.595Z,8.82
2022-08-24T08:00:02.337Z,12.85
2022-08-24T08:02:36.224Z,11.18
2022-08-24T08:05:04.956Z,10.70
2022-08-24T08:07:32.982Z,10.85
2022-08-24T08:10:02.344Z,12.20
2022-08-24T08:12:30.473Z,12.27
2022-08-24T08:14:58.514Z,12.18
2022-08-24T08:17:26.602Z,11.73
2022-08-24T08:19:55.949Z,9.85
2022-08-24T08:22:41.183Z,7.30
2022-08-24T08:27:37.677Z,10.27
2022-08-24T08:30:06.755Z,7.00
2022-08-24T08:32:35.041Z,6.85
2022-08-24T08:35:04.996Z,6.30
2022-08-24T08:37:33.277Z,7.10
2022-08-24T08:40:01.482Z,6.55
2022-08-24T08:42:44.553Z,5.78
2022-08-24T08:45:48.862Z,5.10
2022-08-24T08:49:00.944Z,9.60
2022-08-24T08:52:01.126Z,7.80
2022-08-24T08:54:39.718Z,5.05
2022-08-24T08:57:32.549Z,5.10
2022-08-24T09:00:09.936Z,8.65
2022-08-24T09:03:18.487Z,8.52
2022-08-24T09:06:12.537Z,3.63
2022-08-24T09:08:57.460Z,6.57
2022-08-24T09:11:34.866Z,10.02
2022-08-24T09:14:20.930Z,5.50
2022-08-24T09:17:08.477Z,4.53
2022-08-24T09:19:56.731Z,8.90
2022-08-24T09:22:25.105Z,6.78
2022-08-24T09:25:20.235Z,6.00
2022-08-24T09:28:05.287Z,6.32
2022-08-24T09:30:44.742Z,8.38
2022-08-24T09:33:21.488Z,7.75
2022-08-24T09:36:08.898Z,5.28
2022-08-24T09:38:59.933Z,6.50
2022-08-24T09:42:09.654Z,4.78
2022-08-24T09:45:10.792Z,7.03
2022-08-24T09:48:16.861Z,3.42
2022-08-24T09:51:23.104Z,5.55
2022-08-24T09:54:51.346Z,4.72
2022-08-24T09:57:50.201Z,6.25
2022-08-24T10:00:25.123Z,6.30
2022-08-24T10:03:15.433Z,4.85
2022-08-24T10:06:10.468Z,10.65
2022-08-24T10:08:51.269Z,11.45
2022-08-24T10:11:26.486Z,7.90
2022-08-24T10:14:02.083Z,6.60
2022-08-24T10:16:40.772Z,5.63
2022-08-24T10:19:21.951Z,4.78
2022-08-24T10:21:59.679Z,6.53
2022-08-24T10:24:47.967Z,6.22
2022-08-24T10:27:36.143Z,7.72
2022-08-24T10:30:27.907Z,4.30
2022-08-24T10:33:09.971Z,4.93
2022-08-24T10:36:09.552Z,4.93
2022-08-24T10:39:04.940Z,8.05
2022-08-24T10:42:04.042Z,3.13
2022-08-24T10:44:58.326Z,5.07
2022-08-24T10:47:30.953Z,4.97
2022-08-24T10:50:31.326Z,2.65
2022-08-24T10:53:24.311Z,7.03
2022-08-24T10:56:07.123Z,4.15
2022-08-24T10:59:03.506Z,9.20
2022-08-24T11:01:35.024Z,3.42
2022-08-24T11:04:08.598Z,5.75
2022-08-24T11:06:39.849Z,5.25
2022-08-24T11:09:15.963Z,3.53
2022-08-24T11:11:48.621Z,3.00
2022-08-24T11:14:26.863Z,3.80
2022-08-24T11:16:57.888Z,5.47
2022-08-24T11:19:34.062Z,6.30
2022-08-24T11:22:05.549Z,10.95
2022-08-24T11:24:44.294Z,2.47
2022-08-24T11:27:24.732Z,2.50
2022-08-24T11:30:01.454Z,4.95
2022-08-24T11:32:38.835Z,6.60
2022-08-24T11:35:16.003Z,5.45
2022-08-24T11:37:44.253Z,2.55
2022-08-24T11:40:14.679Z,4.43
2022-08-24T11:43:05.924Z,5.68
2022-08-24T11:45:40.159Z,7.07
2022-08-24T11:48:17.939Z,2.60
2022-08-24T11:50:52.826Z,3.00
2022-08-24T11:53:33.232Z,3.65
2022-08-24T11:56:09.117Z,2.47
2022-08-24T11:58:46.674Z,11.10
2022-08-24T12:01:21.581Z,2.30
2022-08-24T12:04:06.895Z,4.70
2022-08-24T12:06:47.438Z,6.25
2022-08-24T12:09:27.635Z,4.35
2022-08-24T12:12:04.311Z,3.30
2022-08-24T12:14:39.319Z,2.05
2022-08-24T12:17:16.262Z,1.70
2022-08-24T12:19:50.849Z,4.60
2022-08-24T12:22:20.715Z,1.70
2022-08-24T12:24:51.343Z,2.45
2022-08-24T12:27:24.423Z,9.00
2022-08-24T12:29:57.255Z,4.95
2022-08-24T12:32:27.933Z,2.95
2022-08-24T12:35:01.851Z,2.80
2022-08-24T12:37:34.933Z,8.13
2022-08-24T12:40:11.254Z,5.88
2022-08-24T12:42:52.051Z,3.50
2022-08-24T12:45:24.932Z,6.30
2022-08-24T12:47:59.899Z,3.90
2022-08-24T12:50:34.009Z,2.60
2022-08-24T12:53:38.048Z,4.40
2022-08-24T12:56:24.684Z,2.67
2022-08-24T12:59:14.994Z,2.15
2022-08-24T13:01:46.359Z,3.53
2022-08-24T13:04:19.470Z,2.00
2022-08-24T13:06:54.262Z,3.13
2022-08-24T13:09:33.017Z,2.20
2022-08-24T13:12:39.642Z,5.00
2022-08-24T13:15:26.418Z,2.15
2022-08-24T13:18:02.291Z,2.33
2022-08-24T13:20:54.779Z,2.50
2022-08-24T13:23:24.183Z,2.92
2022-08-24T13:25:58.516Z,2.33
2022-08-24T13:28:40.278Z,2.60
2022-08-24T13:31:23.106Z,3.28
2022-08-24T13:33:53.588Z,1.92
2022-08-24T13:36:53.672Z,2.00
2022-08-24T13:39:49.769Z,1.48
2022-08-24T13:42:31.452Z,2.00
2022-08-24T13:45:19.343Z,2.78
2022-08-24T13:47:56.310Z,2.13
2022-08-24T13:50:39.683Z,3.15
2022-08-24T13:53:37.404Z,2.10
2022-08-24T13:56:33.965Z,3.53
2022-08-24T13:59:10.803Z,1.20
2022-08-24T14:01:59.084Z,2.35
2022-08-24T14:04:53.076Z,2.95
2022-08-24T14:07:25.178Z,2.45
2022-08-24T14:10:08.006Z,2.13
2022-08-24T14:12:53.675Z,4.22
2022-08-24T14:15:32.333Z,7.35
2022-08-24T14:18:11.371Z,1.40
2022-08-24T14:21:06.760Z,3.97
2022-08-24T14:23:52.408Z,3.90
2022-08-24T14:26:57.728Z,4.20
2022-08-24T14:29:41.505Z,2.03
2022-08-24T14:32:37.112Z,2.53
2022-08-24T14:37:57.108Z,2.65
2022-08-24T14:40:34.881Z,2.65
2022-08-24T14:43:25.046Z,2.53
2022-08-24T14:46:06.263Z,7.55
2022-08-24T14:48:43.827Z,5.13
2022-08-24T14:51:27.920Z,1.25
2022-08-24T14:54:10.065Z,2.85
2022-08-24T14:56:51.675Z,4.47
2022-08-24T14:59:31.551Z,4.97
2022-08-24T15:02:25.705Z,4.38
2022-08-24T15:05:02.151Z,1.48
2022-08-24T15:07:32.774Z,7.30
2022-08-24T15:10:12.145Z,2.13
2022-08-24T15:12:45.543Z,2.88
2022-08-24T15:15:18.988Z,1.48
2022-08-24T15:17:58.429Z,2.63
2022-08-24T15:20:45.342Z,1.83
2022-08-24T15:23:23.012Z,7.25
2022-08-24T15:25:56.709Z,3.55
2022-08-24T15:28:28.174Z,2.03
2022-08-24T15:31:00.070Z,4.47
2022-08-24T15:33:30.611Z,3.45
2022-08-24T15:36:11.442Z,3.05
2022-08-24T15:38:43.442Z,5.50
2022-08-24T15:41:15.377Z,8.57
2022-08-24T15:43:47.703Z,6.07
2022-08-24T15:46:23.337Z,2.35
2022-08-24T15:48:51.941Z,2.47
2022-08-24T15:51:35.415Z,5.82
2022-08-24T15:54:19.675Z,4.00
2022-08-24T15:56:57.047Z,1.80
2022-08-24T15:59:28.626Z,2.78
2022-08-24T16:02:28.721Z,4.32
2022-08-24T16:05:17.692Z,3.00
2022-08-24T16:08:09.346Z,1.55
2022-08-24T16:10:41.093Z,6.90
2022-08-24T16:13:28.201Z,3.60
2022-08-24T16:16:04.303Z,2.17
2022-08-24T16:18:49.150Z,2.42
2022-08-24T16:21:22.627Z,2.25
2022-08-24T16:24:00.827Z,2.85
2022-08-24T16:26:31.426Z,2.80
2022-08-24T16:29:01.232Z,2.33
2022-08-24T16:31:47.962Z,1.58
2022-08-24T16:34:22.360Z,3.63
2022-08-24T16:36:50.802Z,3.25
2022-08-24T16:39:18.865Z,3.65
2022-08-24T16:41:47.086Z,1.77
2022-08-24T16:44:16.510Z,1.33
2022-08-24T16:46:48.168Z,2.60
2022-08-24T16:49:16.321Z,4.63
2022-08-24T16:51:45.561Z,2.05
2022-08-24T16:54:14.220Z,1.92
2022-08-24T16:56:42.765Z,2.03
2022-08-24T16:59:15.046Z,3.58
2022-08-24T17:01:44.400Z,2.70
2022-08-24T17:04:15.138Z,3.22
2022-08-24T17:06:43.376Z,2.33
2022-08-24T17:09:11.784Z,11.38
2022-08-24T17:11:40.368Z,8.07
2022-08-24T17:14:08.388Z,10.68
2022-08-24T17:16:38.803Z,4.35
2022-08-24T17:19:12.693Z,3.72
2022-08-24T17:21:45.606Z,5.03
2022-08-24T17:24:13.700Z,2.85
2022-08-24T17:26:45.705Z,2.03
2022-08-24T17:29:18.581Z,6.38
2022-08-24T17:31:49.739Z,5.38
2022-08-24T17:34:21.444Z,3.35
2022-08-24T17:36:51.174Z,2.72
2022-08-24T17:39:21.843Z,6.47
2022-08-24T17:41:52.316Z,4.05
2022-08-24T17:44:25.049Z,2.53
2022-08-24T17:46:55.392Z,3.08
2022-08-24T17:49:25.237Z,5.45
2022-08-24T17:51:55.167Z,3.22
2022-08-24T17:54:24.075Z,2.78
2022-08-24T17:56:52.774Z,1.42
2022-08-24T17:59:31.125Z,1.52
2022-08-24T18:02:01.720Z,2.97
2022-08-24T18:04:32.664Z,1.52
2022-08-24T18:07:03.260Z,1.95
2022-08-24T18:09:37.135Z,2.55
2022-08-24T18:12:07.022Z,2.33
2022-08-24T18:14:35.428Z,2.83
2022-08-24T18:17:07.905Z,5.70
2022-08-24T18:19:39.636Z,4.40
2022-08-24T18:22:08.426Z,2.35
2022-08-24T18:24:36.383Z,6.93
2022-08-24T18:27:10.068Z,3.63
2022-08-24T18:29:40.800Z,2.13
2022-08-24T18:32:11.673Z,3.88
2022-08-24T18:34:41.923Z,3.10
2022-08-24T18:37:10.335Z,4.00
2022-08-24T18:39:38.312Z,2.80
2022-08-24T18:42:08.912Z,6.05
2022-08-24T18:44:38.829Z,2.22
2022-08-24T18:47:07.121Z,2.42
2022-08-24T18:49:36.055Z,3.28
2022-08-24T18:52:08.503Z,2.75
2022-08-24T18:54:38.740Z,3.17
2022-08-24T18:57:08.619Z,5.18
2022-08-24T18:59:40.699Z,4.80
2022-08-24T19:02:30.560Z,7.10
2022-08-24T19:04:59.943Z,3.63
2022-08-24T19:07:31.464Z,4.78
2022-08-24T19:09:59.808Z,4.45
2022-08-24T19:12:29.064Z,3.97
2022-08-24T19:14:59.959Z,3.45
2022-08-24T19:17:28.438Z,3.33
2022-08-24T19:19:56.457Z,5.75
2022-08-24T19:22:25.037Z,5.72
2022-08-24T19:24:58.302Z,4.28
2022-08-24T19:27:28.773Z,8.20
2022-08-24T19:29:57.047Z,2.45
2022-08-24T19:32:28.123Z,1.75
2022-08-24T19:34:56.542Z,8.18
2022-08-24T19:37:24.787Z,7.47
2022-08-24T19:39:54.147Z,2.20
2022-08-24T19:42:22.819Z,2.60
2022-08-24T19:45:12.114Z,7.57
2022-08-24T19:47:40.778Z,2.60
2022-08-24T19:50:10.625Z,3.08
2022-08-24T19:52:39.795Z,3.75
2022-08-24T19:55:10.383Z,6.80
2022-08-24T19:57:44.218Z,4.30
2022-08-24T20:00:25.784Z,4.80
2022-08-24T20:02:56.414Z,4.07
2022-08-24T20:05:26.719Z,5.18
2022-08-24T20:07:56.333Z,6.93
2022-08-24T20:10:27.049Z,9.52
2022-08-24T20:12:55.094Z,4.10
2022-08-24T20:15:24.910Z,4.95
2022-08-24T20:17:55.707Z,7.18
2022-08-24T20:20:24.767Z,5.03
2022-08-24T20:22:53.086Z,4.22
2022-08-24T20:25:21.408Z,3.67
2022-08-24T20:28:02.136Z,7.82
2022-08-24T20:30:39.281Z,6.15
2022-08-24T20:33:14.197Z,5.68
2022-08-24T20:35:42.485Z,7.15
2022-08-24T20:38:12.145Z,5.03
2022-08-24T20:40:40.130Z,2.65
2022-08-24T20:43:09.536Z,4.85
2022-08-24T20:45:41.707Z,3.50
2022-08-24T20:48:11.975Z,3.80
2022-08-24T20:50:43.487Z,7.28
2022-08-24T20:53:11.703Z,6.40
2022-08-24T20:55:40.050Z,3.65
2022-08-24T20:58:10.089Z,3.78
2022-08-24T21:00:40.857Z,7.85
2022-08-24T21:03:09.013Z,3.88
2022-08-24T21:05:37.232Z,5.97
2022-08-24T21:08:05.857Z,5.30
2022-08-24T21:10:33.889Z,3.53
2022-08-24T21:13:02.553Z,4.97
2022-08-24T21:15:32.422Z,3.40
2022-08-24T21:18:01.527Z,5.93
2022-08-24T21:20:29.555Z,7.15
2022-08-24T21:22:57.543Z,6.30
2022-08-24T21:25:25.708Z,6.55
2022-08-24T21:27:53.884Z,3.33
2022-08-24T21:30:23.412Z,5.63
2022-08-24T21:33:10.092Z,4.10
2022-08-24T21:35:38.166Z,3.03
2022-08-24T21:38:07.805Z,2.22
2022-08-24T21:40:36.366Z,4.35
2022-08-24T21:43:14.643Z,4.25
2022-08-24T21:45:43.303Z,3.50
2022-08-24T21:48:14.561Z,2.58
2022-08-24T21:50:42.706Z,2.35
2022-08-24T21:53:10.790Z,3.40
2022-08-24T21:55:41.662Z,4.50
2022-08-24T21:58:10.238Z,4.07
2022-08-24T22:00:38.507Z,4.78
2022-08-24T22:03:08.530Z,2.85
2022-08-24T22:05:38.300Z,3.78
2022-08-24T22:08:06.361Z,3.20
2022-08-24T22:10:34.339Z,9.30
2022-08-24T22:13:04.433Z,6.20
2022-08-24T22:15:33.777Z,3.83
2022-08-24T22:18:02.382Z,3.33
2022-08-24T22:20:30.390Z,3.03
2022-08-24T22:22:59.733Z,1.83
2022-08-24T22:25:27.824Z,2.53
2022-08-24T22:27:55.866Z,4.65
2022-08-24T22:30:24.073Z,8.35
2022-08-24T22:32:52.103Z,6.63
2022-08-24T22:35:20.298Z,3.15
2022-08-24T22:37:48.308Z,4.82
2022-08-24T22:40:18.955Z,2.70
2022-08-24T22:42:47.301Z,5.22
2022-08-24T22:45:15.614Z,7.00
2022-08-24T22:47:43.549Z,4.80
2022-08-24T22:50:11.754Z,3.80
2022-08-24T22:52:39.716Z,3.10
2022-08-24T22:55:08.790Z,3.17
2022-08-24T22:57:38.155Z,1.90
2022-08-24T23:00:09.939Z,2.45
2022-08-24T23:02:39.906Z,3.55
2022-08-24T23:05:09.772Z,3.70
2022-08-24T23:07:37.681Z,2.88
2022-08-24T23:10:06.989Z,1.83
2022-08-24T23:12:34.999Z,2.20
2022-08-24T23:15:04.707Z,2.08
2022-08-24T23:17:32.638Z,7.82
2022-08-24T23:20:07.695Z,2.65
2022-08-24T23:22:40.017Z,2.30
2022-08-24T23:25:10.415Z,3.90
2022-08-24T23:27:39.031Z,3.08
2022-08-24T23:30:11.786Z,4.70
2022-08-24T23:32:40.792Z,2.88
2022-08-24T23:35:09.687Z,1.73
2022-08-24T23:37:37.728Z,1.73
2022-08-24T23:40:06.646Z,2.85
2022-08-24T23:42:34.629Z,2.40
2022-08-24T23:45:03.888Z,2.25
2022-08-24T23:47:37.347Z,1.98
2022-08-24T23:50:11.003Z,4.93
2022-08-24T23:52:40.217Z,1.50
2022-08-24T23:55:20.078Z,2.67
2022-08-24T23:57:50.142Z,1.70
